Terminal Aerodrome Forecast
Issued by NWS

Home | Current Version | Previous Version | Text Only | Print | Product List | Glossary On
Versions: 1 2 3 4 5 6 7 8 9 10 11 12 13 14
000
FTAK31 PAJN 270520
TAFAGY
TAF
PAGY 270520Z 2706/2806 VRB04KT P6SM VCSH FEW015 OVC050
     FM271800 21010KT P6SM -RA BKN025 OVC035
     FM280300 21012G20KT 5SM -RA BR BKN025 OVC050
      AMD LTD TO CLD VIS AND WIND=

USA.gov is the U.S. government's official web portal to all federal, state and local government web resources and services.